sensor_id;sensor_type;location;lat;lon;timestamp;P1;durP1;ratioP1;P2;durP2;ratioP2
77864;SDS011;67061;48.524;9.040;2023-04-28T00:01:53;5.88;;;3.83;;
77864;SDS011;67061;48.524;9.040;2023-04-28T00:04:20;6.18;;;3.08;;
77864;SDS011;67061;48.524;9.040;2023-04-28T00:06:47;8.02;;;4.18;;
77864;SDS011;67061;48.524;9.040;2023-04-28T00:09:15;7.03;;;3.58;;
77864;SDS011;67061;48.524;9.040;2023-04-28T00:11:43;5.88;;;3.95;;
77864;SDS011;67061;48.524;9.040;2023-04-28T00:14:10;9.13;;;3.83;;
77864;SDS011;67061;48.524;9.040;2023-04-28T00:16:37;7.22;;;3.60;;
77864;SDS011;67061;48.524;9.040;2023-04-28T00:19:04;6.95;;;3.88;;
77864;SDS011;67061;48.524;9.040;2023-04-28T00:21:31;6.40;;;3.42;;
77864;SDS011;67061;48.524;9.040;2023-04-28T00:23:58;5.68;;;3.42;;
77864;SDS011;67061;48.524;9.040;2023-04-28T00:26:26;7.35;;;3.53;;
77864;SDS011;67061;48.524;9.040;2023-04-28T00:28:53;6.50;;;3.80;;
77864;SDS011;67061;48.524;9.040;2023-04-28T00:31:20;7.07;;;3.70;;
77864;SDS011;67061;48.524;9.040;2023-04-28T00:33:47;6.13;;;3.20;;
77864;SDS011;67061;48.524;9.040;2023-04-28T00:36:14;5.75;;;3.58;;
77864;SDS011;67061;48.524;9.040;2023-04-28T00:38:41;5.18;;;3.63;;
77864;SDS011;67061;48.524;9.040;2023-04-28T00:41:08;4.57;;;3.30;;
77864;SDS011;67061;48.524;9.040;2023-04-28T00:43:44;8.10;;;3.78;;
77864;SDS011;67061;48.524;9.040;2023-04-28T00:46:12;7.45;;;3.70;;
77864;SDS011;67061;48.524;9.040;2023-04-28T00:48:47;8.93;;;3.92;;
77864;SDS011;67061;48.524;9.040;2023-04-28T00:51:14;5.82;;;3.55;;
77864;SDS011;67061;48.524;9.040;2023-04-28T00:53:41;7.57;;;3.72;;
77864;SDS011;67061;48.524;9.040;2023-04-28T00:56:09;6.22;;;3.50;;
77864;SDS011;67061;48.524;9.040;2023-04-28T00:58:36;6.35;;;3.97;;
77864;SDS011;67061;48.524;9.040;2023-04-28T01:01:05;6.72;;;3.67;;
77864;SDS011;67061;48.524;9.040;2023-04-28T01:03:36;7.10;;;3.83;;
77864;SDS011;67061;48.524;9.040;2023-04-28T01:06:04;7.88;;;3.40;;
77864;SDS011;67061;48.524;9.040;2023-04-28T01:08:34;5.13;;;3.33;;
77864;SDS011;67061;48.524;9.040;2023-04-28T01:11:01;7.13;;;3.65;;
77864;SDS011;67061;48.524;9.040;2023-04-28T01:13:28;6.05;;;3.60;;
77864;SDS011;67061;48.524;9.040;2023-04-28T01:15:55;5.82;;;3.60;;
77864;SDS011;67061;48.524;9.040;2023-04-28T01:18:24;6.88;;;3.40;;
77864;SDS011;67061;48.524;9.040;2023-04-28T01:20:51;6.45;;;3.50;;
77864;SDS011;67061;48.524;9.040;2023-04-28T01:23:18;7.43;;;3.63;;
77864;SDS011;67061;48.524;9.040;2023-04-28T01:25:46;6.25;;;3.75;;
77864;SDS011;67061;48.524;9.040;2023-04-28T01:28:13;7.97;;;3.85;;
77864;SDS011;67061;48.524;9.040;2023-04-28T01:30:40;7.95;;;4.15;;
77864;SDS011;67061;48.524;9.040;2023-04-28T01:33:07;6.50;;;3.53;;
77864;SDS011;67061;48.524;9.040;2023-04-28T01:35:34;7.15;;;4.25;;
77864;SDS011;67061;48.524;9.040;2023-04-28T01:38:00;6.43;;;3.88;;
77864;SDS011;67061;48.524;9.040;2023-04-28T01:40:27;6.93;;;3.53;;
77864;SDS011;67061;48.524;9.040;2023-04-28T01:42:56;6.15;;;4.25;;
77864;SDS011;67061;48.524;9.040;2023-04-28T01:45:22;6.88;;;3.58;;
77864;SDS011;67061;48.524;9.040;2023-04-28T01:47:49;6.10;;;3.88;;
77864;SDS011;67061;48.524;9.040;2023-04-28T01:50:16;7.45;;;3.75;;
77864;SDS011;67061;48.524;9.040;2023-04-28T01:52:43;6.30;;;3.85;;
77864;SDS011;67061;48.524;9.040;2023-04-28T01:55:10;6.05;;;4.05;;
77864;SDS011;67061;48.524;9.040;2023-04-28T01:57:37;7.30;;;3.58;;
77864;SDS011;67061;48.524;9.040;2023-04-28T02:00:06;4.45;;;3.35;;
77864;SDS011;67061;48.524;9.040;2023-04-28T02:02:33;6.13;;;3.30;;
77864;SDS011;67061;48.524;9.040;2023-04-28T02:05:01;6.88;;;3.53;;
77864;SDS011;67061;48.524;9.040;2023-04-28T02:07:28;7.45;;;4.32;;
77864;SDS011;67061;48.524;9.040;2023-04-28T02:09:54;8.57;;;4.03;;
77864;SDS011;67061;48.524;9.040;2023-04-28T02:12:21;6.80;;;4.15;;
77864;SDS011;67061;48.524;9.040;2023-04-28T02:14:48;5.10;;;3.63;;
77864;SDS011;67061;48.524;9.040;2023-04-28T02:17:17;7.50;;;4.13;;
77864;SDS011;67061;48.524;9.040;2023-04-28T02:19:43;7.43;;;3.72;;
77864;SDS011;67061;48.524;9.040;2023-04-28T02:22:10;6.45;;;4.13;;
77864;SDS011;67061;48.524;9.040;2023-04-28T02:24:37;9.35;;;5.07;;
77864;SDS011;67061;48.524;9.040;2023-04-28T02:27:04;8.57;;;5.72;;
77864;SDS011;67061;48.524;9.040;2023-04-28T02:29:31;6.85;;;4.55;;
77864;SDS011;67061;48.524;9.040;2023-04-28T02:31:58;6.95;;;4.50;;
77864;SDS011;67061;48.524;9.040;2023-04-28T02:34:27;7.72;;;4.78;;
77864;SDS011;67061;48.524;9.040;2023-04-28T02:36:53;8.00;;;4.05;;
77864;SDS011;67061;48.524;9.040;2023-04-28T02:39:20;12.07;;;9.65;;
77864;SDS011;67061;48.524;9.040;2023-04-28T02:41:50;7.07;;;4.55;;
77864;SDS011;67061;48.524;9.040;2023-04-28T02:44:17;6.45;;;3.80;;
77864;SDS011;67061;48.524;9.040;2023-04-28T02:46:45;6.75;;;4.18;;
77864;SDS011;67061;48.524;9.040;2023-04-28T02:49:12;6.82;;;3.40;;
77864;SDS011;67061;48.524;9.040;2023-04-28T02:51:40;8.57;;;4.32;;
77864;SDS011;67061;48.524;9.040;2023-04-28T02:54:07;6.90;;;4.18;;
77864;SDS011;67061;48.524;9.040;2023-04-28T02:56:34;6.38;;;4.22;;
77864;SDS011;67061;48.524;9.040;2023-04-28T02:59:02;6.15;;;4.30;;
77864;SDS011;67061;48.524;9.040;2023-04-28T03:01:29;5.85;;;4.18;;
77864;SDS011;67061;48.524;9.040;2023-04-28T03:03:55;6.95;;;4.07;;
77864;SDS011;67061;48.524;9.040;2023-04-28T03:06:22;7.10;;;5.07;;
77864;SDS011;67061;48.524;9.040;2023-04-28T03:08:51;8.68;;;4.60;;
77864;SDS011;67061;48.524;9.040;2023-04-28T03:11:17;6.88;;;3.95;;
77864;SDS011;67061;48.524;9.040;2023-04-28T03:13:44;7.95;;;3.97;;
77864;SDS011;67061;48.524;9.040;2023-04-28T03:16:11;7.22;;;3.60;;
77864;SDS011;67061;48.524;9.040;2023-04-28T03:18:38;6.82;;;4.20;;
77864;SDS011;67061;48.524;9.040;2023-04-28T03:21:05;6.97;;;4.32;;
77864;SDS011;67061;48.524;9.040;2023-04-28T03:23:32;7.63;;;4.03;;
77864;SDS011;67061;48.524;9.040;2023-04-28T03:26:00;7.85;;;4.13;;
77864;SDS011;67061;48.524;9.040;2023-04-28T03:28:27;7.40;;;4.68;;
77864;SDS011;67061;48.524;9.040;2023-04-28T03:30:54;6.45;;;4.10;;
77864;SDS011;67061;48.524;9.040;2023-04-28T03:33:21;10.90;;;4.95;;
77864;SDS011;67061;48.524;9.040;2023-04-28T03:35:48;7.38;;;5.07;;
77864;SDS011;67061;48.524;9.040;2023-04-28T03:38:15;6.57;;;4.80;;
77864;SDS011;67061;48.524;9.040;2023-04-28T03:40:42;7.28;;;5.07;;
77864;SDS011;67061;48.524;9.040;2023-04-28T03:43:10;9.07;;;5.30;;
77864;SDS011;67061;48.524;9.040;2023-04-28T03:45:37;8.05;;;5.68;;
77864;SDS011;67061;48.524;9.040;2023-04-28T03:48:05;7.10;;;5.07;;
77864;SDS011;67061;48.524;9.040;2023-04-28T03:50:32;8.55;;;5.32;;
77864;SDS011;67061;48.524;9.040;2023-04-28T03:52:59;8.30;;;5.07;;
77864;SDS011;67061;48.524;9.040;2023-04-28T03:55:26;7.50;;;5.25;;
77864;SDS011;67061;48.524;9.040;2023-04-28T03:57:53;7.18;;;4.90;;
77864;SDS011;67061;48.524;9.040;2023-04-28T04:00:21;8.35;;;4.93;;
77864;SDS011;67061;48.524;9.040;2023-04-28T04:02:48;7.53;;;4.60;;
77864;SDS011;67061;48.524;9.040;2023-04-28T04:05:15;8.00;;;5.25;;
77864;SDS011;67061;48.524;9.040;2023-04-28T04:07:42;9.13;;;5.68;;
77864;SDS011;67061;48.524;9.040;2023-04-28T04:10:09;6.95;;;4.13;;
77864;SDS011;67061;48.524;9.040;2023-04-28T04:12:36;7.00;;;5.20;;
77864;SDS011;67061;48.524;9.040;2023-04-28T04:15:03;7.40;;;5.40;;
77864;SDS011;67061;48.524;9.040;2023-04-28T04:17:32;8.35;;;5.25;;
77864;SDS011;67061;48.524;9.040;2023-04-28T04:19:59;8.52;;;5.35;;
77864;SDS011;67061;48.524;9.040;2023-04-28T04:22:26;8.27;;;6.10;;
77864;SDS011;67061;48.524;9.040;2023-04-28T04:24:53;8.00;;;5.32;;
77864;SDS011;67061;48.524;9.040;2023-04-28T04:27:20;7.53;;;5.38;;
77864;SDS011;67061;48.524;9.040;2023-04-28T04:29:47;7.95;;;5.50;;
77864;SDS011;67061;48.524;9.040;2023-04-28T04:32:14;7.70;;;5.13;;
77864;SDS011;67061;48.524;9.040;2023-04-28T04:34:43;8.25;;;5.25;;
77864;SDS011;67061;48.524;9.040;2023-04-28T04:37:10;7.43;;;4.68;;
77864;SDS011;67061;48.524;9.040;2023-04-28T04:39:36;7.60;;;5.25;;
77864;SDS011;67061;48.524;9.040;2023-04-28T04:42:03;9.18;;;5.30;;
77864;SDS011;67061;48.524;9.040;2023-04-28T04:44:30;10.13;;;6.63;;
77864;SDS011;67061;48.524;9.040;2023-04-28T04:46:57;12.10;;;7.75;;
77864;SDS011;67061;48.524;9.040;2023-04-28T04:49:24;12.65;;;8.60;;
77864;SDS011;67061;48.524;9.040;2023-04-28T04:51:52;13.80;;;7.57;;
77864;SDS011;67061;48.524;9.040;2023-04-28T04:54:19;10.00;;;6.70;;
77864;SDS011;67061;48.524;9.040;2023-04-28T04:56:46;10.75;;;7.57;;
77864;SDS011;67061;48.524;9.040;2023-04-28T04:59:13;11.18;;;6.90;;
77864;SDS011;67061;48.524;9.040;2023-04-28T05:01:40;9.82;;;6.05;;
77864;SDS011;67061;48.524;9.040;2023-04-28T05:04:07;9.63;;;6.53;;
77864;SDS011;67061;48.524;9.040;2023-04-28T05:06:34;12.20;;;6.85;;
77864;SDS011;67061;48.524;9.040;2023-04-28T05:09:02;10.20;;;6.47;;
77864;SDS011;67061;48.524;9.040;2023-04-28T05:11:29;11.50;;;6.57;;
77864;SDS011;67061;48.524;9.040;2023-04-28T05:13:56;9.38;;;6.65;;
77864;SDS011;67061;48.524;9.040;2023-04-28T05:16:23;11.00;;;7.25;;
77864;SDS011;67061;48.524;9.040;2023-04-28T05:18:50;10.25;;;6.18;;
77864;SDS011;67061;48.524;9.040;2023-04-28T05:21:18;9.45;;;7.07;;
77864;SDS011;67061;48.524;9.040;2023-04-28T05:23:45;9.65;;;6.50;;
77864;SDS011;67061;48.524;9.040;2023-04-28T05:26:13;11.25;;;6.97;;
77864;SDS011;67061;48.524;9.040;2023-04-28T05:28:40;10.40;;;7.07;;
77864;SDS011;67061;48.524;9.040;2023-04-28T05:31:07;10.52;;;6.82;;
77864;SDS011;67061;48.524;9.040;2023-04-28T05:33:34;12.73;;;7.13;;
77864;SDS011;67061;48.524;9.040;2023-04-28T05:36:01;10.23;;;6.88;;
77864;SDS011;67061;48.524;9.040;2023-04-28T05:38:28;10.77;;;7.38;;
77864;SDS011;67061;48.524;9.040;2023-04-28T05:41:01;10.60;;;6.82;;
77864;SDS011;67061;48.524;9.040;2023-04-28T05:43:29;10.05;;;6.18;;
77864;SDS011;67061;48.524;9.040;2023-04-28T05:45:56;11.00;;;6.30;;
77864;SDS011;67061;48.524;9.040;2023-04-28T05:48:23;10.80;;;6.18;;
77864;SDS011;67061;48.524;9.040;2023-04-28T05:50:50;9.18;;;6.28;;
77864;SDS011;67061;48.524;9.040;2023-04-28T05:53:17;9.10;;;6.05;;
77864;SDS011;67061;48.524;9.040;2023-04-28T05:55:44;9.95;;;7.38;;
77864;SDS011;67061;48.524;9.040;2023-04-28T05:58:11;10.02;;;6.20;;
77864;SDS011;67061;48.524;9.040;2023-04-28T06:00:39;8.90;;;6.95;;
77864;SDS011;67061;48.524;9.040;2023-04-28T06:03:06;8.68;;;6.38;;
77864;SDS011;67061;48.524;9.040;2023-04-28T06:05:35;10.23;;;5.70;;
77864;SDS011;67061;48.524;9.040;2023-04-28T06:08:02;9.93;;;6.22;;
77864;SDS011;67061;48.524;9.040;2023-04-28T06:10:29;10.82;;;6.38;;
77864;SDS011;67061;48.524;9.040;2023-04-28T06:12:56;9.85;;;6.88;;
77864;SDS011;67061;48.524;9.040;2023-04-28T06:15:23;9.77;;;6.60;;
77864;SDS011;67061;48.524;9.040;2023-04-28T06:17:51;9.60;;;5.82;;
77864;SDS011;67061;48.524;9.040;2023-04-28T06:23:23;9.05;;;5.75;;
77864;SDS011;67061;48.524;9.040;2023-04-28T06:25:50;7.28;;;5.20;;
77864;SDS011;67061;48.524;9.040;2023-04-28T06:28:17;9.85;;;6.57;;
77864;SDS011;67061;48.524;9.040;2023-04-28T06:30:44;7.85;;;5.28;;
77864;SDS011;67061;48.524;9.040;2023-04-28T06:33:12;8.27;;;5.03;;
77864;SDS011;67061;48.524;9.040;2023-04-28T06:35:39;23.38;;;12.70;;
77864;SDS011;67061;48.524;9.040;2023-04-28T06:38:06;15.10;;;8.55;;
77864;SDS011;67061;48.524;9.040;2023-04-28T06:40:33;13.73;;;7.90;;
77864;SDS011;67061;48.524;9.040;2023-04-28T06:43:00;11.90;;;6.88;;
77864;SDS011;67061;48.524;9.040;2023-04-28T06:45:28;11.15;;;6.15;;
77864;SDS011;67061;48.524;9.040;2023-04-28T06:47:55;8.23;;;5.43;;
77864;SDS011;67061;48.524;9.040;2023-04-28T06:50:23;8.27;;;5.32;;
77864;SDS011;67061;48.524;9.040;2023-04-28T06:52:50;7.03;;;5.10;;
77864;SDS011;67061;48.524;9.040;2023-04-28T06:55:17;7.22;;;5.32;;
77864;SDS011;67061;48.524;9.040;2023-04-28T06:57:44;7.20;;;5.72;;
77864;SDS011;67061;48.524;9.040;2023-04-28T07:00:11;7.30;;;5.18;;
77864;SDS011;67061;48.524;9.040;2023-04-28T07:02:39;10.95;;;5.88;;
77864;SDS011;67061;48.524;9.040;2023-04-28T07:05:06;6.93;;;5.78;;
77864;SDS011;67061;48.524;9.040;2023-04-28T07:07:34;9.23;;;6.35;;
77864;SDS011;67061;48.524;9.040;2023-04-28T07:10:03;8.60;;;5.45;;
77864;SDS011;67061;48.524;9.040;2023-04-28T07:12:32;8.57;;;5.25;;
77864;SDS011;67061;48.524;9.040;2023-04-28T07:14:59;8.50;;;5.13;;
77864;SDS011;67061;48.524;9.040;2023-04-28T07:17:26;8.63;;;5.25;;
77864;SDS011;67061;48.524;9.040;2023-04-28T07:19:53;9.13;;;5.25;;
77864;SDS011;67061;48.524;9.040;2023-04-28T07:22:20;8.10;;;5.28;;
77864;SDS011;67061;48.524;9.040;2023-04-28T07:24:48;8.43;;;5.40;;
77864;SDS011;67061;48.524;9.040;2023-04-28T07:27:15;9.65;;;5.25;;
77864;SDS011;67061;48.524;9.040;2023-04-28T07:29:42;8.05;;;4.95;;
77864;SDS011;67061;48.524;9.040;2023-04-28T07:32:09;6.95;;;5.00;;
77864;SDS011;67061;48.524;9.040;2023-04-28T07:34:36;7.47;;;5.45;;
77864;SDS011;67061;48.524;9.040;2023-04-28T07:37:03;7.82;;;5.38;;
77864;SDS011;67061;48.524;9.040;2023-04-28T07:39:31;7.60;;;5.18;;
77864;SDS011;67061;48.524;9.040;2023-04-28T07:42:00;7.18;;;5.60;;
77864;SDS011;67061;48.524;9.040;2023-04-28T07:44:28;8.27;;;5.53;;
77864;SDS011;67061;48.524;9.040;2023-04-28T07:46:55;7.40;;;5.32;;
77864;SDS011;67061;48.524;9.040;2023-04-28T07:49:22;10.00;;;6.45;;
77864;SDS011;67061;48.524;9.040;2023-04-28T07:51:49;8.52;;;5.80;;
77864;SDS011;67061;48.524;9.040;2023-04-28T07:54:17;7.88;;;6.22;;
77864;SDS011;67061;48.524;9.040;2023-04-28T07:56:45;7.38;;;5.63;;
77864;SDS011;67061;48.524;9.040;2023-04-28T07:59:13;7.07;;;5.90;;
77864;SDS011;67061;48.524;9.040;2023-04-28T08:01:40;9.50;;;6.57;;
77864;SDS011;67061;48.524;9.040;2023-04-28T08:04:07;9.95;;;6.57;;
77864;SDS011;67061;48.524;9.040;2023-04-28T08:06:35;8.55;;;6.00;;
77864;SDS011;67061;48.524;9.040;2023-04-28T08:09:04;9.13;;;5.72;;
77864;SDS011;67061;48.524;9.040;2023-04-28T08:11:31;8.15;;;5.68;;
77864;SDS011;67061;48.524;9.040;2023-04-28T08:13:58;7.68;;;4.95;;
77864;SDS011;67061;48.524;9.040;2023-04-28T08:16:28;7.90;;;5.60;;
77864;SDS011;67061;48.524;9.040;2023-04-28T08:18:57;8.00;;;5.45;;
77864;SDS011;67061;48.524;9.040;2023-04-28T08:21:24;9.35;;;5.97;;
77864;SDS011;67061;48.524;9.040;2023-04-28T08:23:51;8.68;;;5.63;;
77864;SDS011;67061;48.524;9.040;2023-04-28T08:26:18;9.18;;;6.03;;
77864;SDS011;67061;48.524;9.040;2023-04-28T08:28:45;9.13;;;5.95;;
77864;SDS011;67061;48.524;9.040;2023-04-28T08:31:12;8.77;;;5.82;;
77864;SDS011;67061;48.524;9.040;2023-04-28T08:33:40;8.52;;;6.55;;
77864;SDS011;67061;48.524;9.040;2023-04-28T08:36:08;9.55;;;6.68;;
77864;SDS011;67061;48.524;9.040;2023-04-28T08:38:39;7.90;;;5.38;;
77864;SDS011;67061;48.524;9.040;2023-04-28T08:41:06;9.30;;;6.97;;
77864;SDS011;67061;48.524;9.040;2023-04-28T08:43:33;9.38;;;6.63;;
77864;SDS011;67061;48.524;9.040;2023-04-28T08:46:02;8.00;;;5.78;;
77864;SDS011;67061;48.524;9.040;2023-04-28T08:48:35;9.45;;;6.07;;
77864;SDS011;67061;48.524;9.040;2023-04-28T08:51:07;7.97;;;5.82;;
77864;SDS011;67061;48.524;9.040;2023-04-28T08:53:36;8.77;;;6.53;;
77864;SDS011;67061;48.524;9.040;2023-04-28T08:56:04;8.20;;;5.53;;
77864;SDS011;67061;48.524;9.040;2023-04-28T08:58:33;6.93;;;4.82;;
77864;SDS011;67061;48.524;9.040;2023-04-28T09:01:02;6.53;;;4.50;;
77864;SDS011;67061;48.524;9.040;2023-04-28T09:03:29;5.13;;;3.90;;
77864;SDS011;67061;48.524;9.040;2023-04-28T09:05:56;5.93;;;3.30;;
77864;SDS011;67061;48.524;9.040;2023-04-28T09:08:25;4.80;;;3.15;;
77864;SDS011;67061;48.524;9.040;2023-04-28T09:11:05;3.80;;;2.33;;
77864;SDS011;67061;48.524;9.040;2023-04-28T09:13:33;3.60;;;2.35;;
77864;SDS011;67061;48.524;9.040;2023-04-28T09:16:01;3.83;;;2.53;;
77864;SDS011;67061;48.524;9.040;2023-04-28T09:18:29;3.70;;;2.30;;
77864;SDS011;67061;48.524;9.040;2023-04-28T09:21:06;3.30;;;2.03;;
77864;SDS011;67061;48.524;9.040;2023-04-28T09:23:45;8.55;;;2.20;;
77864;SDS011;67061;48.524;9.040;2023-04-28T09:26:13;5.50;;;2.33;;
77864;SDS011;67061;48.524;9.040;2023-04-28T09:28:40;3.00;;;2.10;;
77864;SDS011;67061;48.524;9.040;2023-04-28T09:31:14;5.85;;;2.55;;
77864;SDS011;67061;48.524;9.040;2023-04-28T09:33:55;4.45;;;2.50;;
77864;SDS011;67061;48.524;9.040;2023-04-28T09:36:25;4.28;;;2.30;;
77864;SDS011;67061;48.524;9.040;2023-04-28T09:38:55;4.07;;;2.15;;
77864;SDS011;67061;48.524;9.040;2023-04-28T09:41:24;7.40;;;1.98;;
77864;SDS011;67061;48.524;9.040;2023-04-28T09:44:08;2.60;;;1.50;;
77864;SDS011;67061;48.524;9.040;2023-04-28T09:46:40;2.80;;;1.73;;
77864;SDS011;67061;48.524;9.040;2023-04-28T09:49:07;3.40;;;1.83;;
77864;SDS011;67061;48.524;9.040;2023-04-28T09:51:34;2.42;;;1.40;;
77864;SDS011;67061;48.524;9.040;2023-04-28T09:54:03;2.60;;;1.40;;
77864;SDS011;67061;48.524;9.040;2023-04-28T09:56:31;2.20;;;1.20;;
77864;SDS011;67061;48.524;9.040;2023-04-28T09:58:59;2.92;;;1.55;;
77864;SDS011;67061;48.524;9.040;2023-04-28T10:01:29;3.40;;;1.30;;
77864;SDS011;67061;48.524;9.040;2023-04-28T10:03:58;2.85;;;1.80;;
77864;SDS011;67061;48.524;9.040;2023-04-28T10:06:27;2.35;;;1.33;;
77864;SDS011;67061;48.524;9.040;2023-04-28T10:08:55;2.53;;;1.00;;
77864;SDS011;67061;48.524;9.040;2023-04-28T10:11:25;2.17;;;1.00;;
77864;SDS011;67061;48.524;9.040;2023-04-28T10:13:53;2.28;;;0.90;;
77864;SDS011;67061;48.524;9.040;2023-04-28T10:16:20;2.92;;;0.90;;
77864;SDS011;67061;48.524;9.040;2023-04-28T10:18:48;3.00;;;0.70;;
77864;SDS011;67061;48.524;9.040;2023-04-28T10:21:17;1.95;;;0.85;;
77864;SDS011;67061;48.524;9.040;2023-04-28T10:23:51;1.92;;;0.60;;
77864;SDS011;67061;48.524;9.040;2023-04-28T10:26:32;2.47;;;0.55;;
77864;SDS011;67061;48.524;9.040;2023-04-28T10:29:17;1.83;;;0.80;;
77864;SDS011;67061;48.524;9.040;2023-04-28T10:34:42;2.30;;;0.40;;
77864;SDS011;67061;48.524;9.040;2023-04-28T10:37:09;1.35;;;0.50;;
77864;SDS011;67061;48.524;9.040;2023-04-28T10:39:38;1.27;;;0.50;;
77864;SDS011;67061;48.524;9.040;2023-04-28T10:42:15;2.35;;;0.73;;
77864;SDS011;67061;48.524;9.040;2023-04-28T10:45:23;1.30;;;0.43;;
77864;SDS011;67061;48.524;9.040;2023-04-28T10:51:33;0.98;;;0.28;;
77864;SDS011;67061;48.524;9.040;2023-04-28T10:54:07;1.40;;;0.10;;
77864;SDS011;67061;48.524;9.040;2023-04-28T10:59:48;1.58;;;0.20;;
77864;SDS011;67061;48.524;9.040;2023-04-28T11:05:09;0.60;;;0.10;;
77864;SDS011;67061;48.524;9.040;2023-04-28T11:11:16;3.22;;;0.90;;
77864;SDS011;67061;48.524;9.040;2023-04-28T11:13:46;2.60;;;0.20;;
77864;SDS011;67061;48.524;9.040;2023-04-28T11:16:14;0.68;;;0.10;;
77864;SDS011;67061;48.524;9.040;2023-04-28T11:18:50;0.82;;;0.20;;
77864;SDS011;67061;48.524;9.040;2023-04-28T11:21:23;1.15;;;0.30;;
77864;SDS011;67061;48.524;9.040;2023-04-28T11:23:52;0.88;;;0.20;;
77864;SDS011;67061;48.524;9.040;2023-04-28T11:26:19;1.00;;;0.10;;
77864;SDS011;67061;48.524;9.040;2023-04-28T11:28:49;0.68;;;0.20;;
77864;SDS011;67061;48.524;9.040;2023-04-28T11:31:18;0.40;;;0.10;;
77864;SDS011;67061;48.524;9.040;2023-04-28T11:33:52;1.23;;;0.10;;
77864;SDS011;67061;48.524;9.040;2023-04-28T11:36:24;0.90;;;0.10;;
77864;SDS011;67061;48.524;9.040;2023-04-28T11:38:56;1.10;;;0.10;;
77864;SDS011;67061;48.524;9.040;2023-04-28T11:41:30;1.50;;;0.40;;
77864;SDS011;67061;48.524;9.040;2023-04-28T11:43:59;1.40;;;0.10;;
77864;SDS011;67061;48.524;9.040;2023-04-28T16:56:25;3.10;;;2.00;;
77864;SDS011;67061;48.524;9.040;2023-04-28T16:58:53;3.03;;;2.15;;
77864;SDS011;67061;48.524;9.040;2023-04-28T17:01:20;5.78;;;2.90;;
77864;SDS011;67061;48.524;9.040;2023-04-28T17:03:48;3.67;;;3.03;;
77864;SDS011;67061;48.524;9.040;2023-04-28T17:06:16;4.20;;;3.78;;
77864;SDS011;67061;48.524;9.040;2023-04-28T17:08:42;3.40;;;2.38;;
77864;SDS011;67061;48.524;9.040;2023-04-28T17:11:14;3.95;;;2.47;;
77864;SDS011;67061;48.524;9.040;2023-04-28T17:13:42;2.60;;;1.83;;
77864;SDS011;67061;48.524;9.040;2023-04-28T17:16:09;2.65;;;1.88;;
77864;SDS011;67061;48.524;9.040;2023-04-28T17:18:36;5.25;;;2.15;;
77864;SDS011;67061;48.524;9.040;2023-04-28T17:21:05;4.00;;;2.60;;
77864;SDS011;67061;48.524;9.040;2023-04-28T17:23:32;4.35;;;2.70;;
77864;SDS011;67061;48.524;9.040;2023-04-28T17:25:59;5.13;;;2.17;;
77864;SDS011;67061;48.524;9.040;2023-04-28T17:28:27;4.63;;;2.70;;
77864;SDS011;67061;48.524;9.040;2023-04-28T17:30:56;3.15;;;1.85;;
77864;SDS011;67061;48.524;9.040;2023-04-28T17:33:22;3.45;;;3.15;;
77864;SDS011;67061;48.524;9.040;2023-04-28T17:35:49;3.33;;;2.33;;
77864;SDS011;67061;48.524;9.040;2023-04-28T17:38:16;5.30;;;4.78;;
77864;SDS011;67061;48.524;9.040;2023-04-28T17:40:43;2.97;;;2.10;;
77864;SDS011;67061;48.524;9.040;2023-04-28T17:43:12;4.20;;;3.72;;
77864;SDS011;67061;48.524;9.040;2023-04-28T17:45:40;3.30;;;2.42;;
77864;SDS011;67061;48.524;9.040;2023-04-28T17:48:08;3.33;;;2.25;;
77864;SDS011;67061;48.524;9.040;2023-04-28T17:50:36;3.20;;;2.13;;
77864;SDS011;67061;48.524;9.040;2023-04-28T17:53:03;4.10;;;2.45;;
77864;SDS011;67061;48.524;9.040;2023-04-28T17:55:30;4.65;;;2.88;;
77864;SDS011;67061;48.524;9.040;2023-04-28T17:57:57;3.40;;;2.58;;
77864;SDS011;67061;48.524;9.040;2023-04-28T18:00:24;4.50;;;1.95;;
77864;SDS011;67061;48.524;9.040;2023-04-28T18:02:51;3.30;;;2.28;;
77864;SDS011;67061;48.524;9.040;2023-04-28T18:05:20;4.63;;;2.58;;
77864;SDS011;67061;48.524;9.040;2023-04-28T18:07:48;3.10;;;2.00;;
77864;SDS011;67061;48.524;9.040;2023-04-28T18:10:15;3.80;;;2.40;;
77864;SDS011;67061;48.524;9.040;2023-04-28T18:12:43;3.92;;;1.98;;
77864;SDS011;67061;48.524;9.040;2023-04-28T18:15:10;3.75;;;2.30;;
77864;SDS011;67061;48.524;9.040;2023-04-28T18:17:37;5.50;;;2.60;;
77864;SDS011;67061;48.524;9.040;2023-04-28T18:20:04;3.95;;;2.75;;
77864;SDS011;67061;48.524;9.040;2023-04-28T18:22:34;5.90;;;3.05;;
77864;SDS011;67061;48.524;9.040;2023-04-28T18:25:01;4.57;;;2.95;;
77864;SDS011;67061;48.524;9.040;2023-04-28T18:27:29;3.90;;;2.72;;
77864;SDS011;67061;48.524;9.040;2023-04-28T18:29:56;4.70;;;2.70;;
77864;SDS011;67061;48.524;9.040;2023-04-28T18:32:22;4.47;;;3.63;;
77864;SDS011;67061;48.524;9.040;2023-04-28T18:34:49;4.53;;;2.85;;
77864;SDS011;67061;48.524;9.040;2023-04-28T18:37:16;5.32;;;3.35;;
77864;SDS011;67061;48.524;9.040;2023-04-28T18:39:45;4.85;;;3.90;;
77864;SDS011;67061;48.524;9.040;2023-04-28T18:42:11;5.28;;;3.40;;
77864;SDS011;67061;48.524;9.040;2023-04-28T18:44:39;10.18;;;6.15;;
77864;SDS011;67061;48.524;9.040;2023-04-28T18:47:06;6.50;;;4.22;;
77864;SDS011;67061;48.524;9.040;2023-04-28T18:49:32;5.82;;;3.88;;
77864;SDS011;67061;48.524;9.040;2023-04-28T18:52:01;4.82;;;3.03;;
77864;SDS011;67061;48.524;9.040;2023-04-28T18:54:28;6.47;;;3.95;;
77864;SDS011;67061;48.524;9.040;2023-04-28T18:56:56;6.32;;;3.92;;
77864;SDS011;67061;48.524;9.040;2023-04-28T18:59:23;10.35;;;5.72;;
77864;SDS011;67061;48.524;9.040;2023-04-28T19:01:50;16.80;;;9.43;;
77864;SDS011;67061;48.524;9.040;2023-04-28T19:04:17;11.38;;;7.63;;
77864;SDS011;67061;48.524;9.040;2023-04-28T19:06:45;11.68;;;7.60;;
77864;SDS011;67061;48.524;9.040;2023-04-28T19:09:12;11.88;;;7.47;;
77864;SDS011;67061;48.524;9.040;2023-04-28T19:11:43;8.50;;;6.20;;
77864;SDS011;67061;48.524;9.040;2023-04-28T19:14:12;8.15;;;6.28;;
77864;SDS011;67061;48.524;9.040;2023-04-28T19:16:39;9.48;;;6.43;;
77864;SDS011;67061;48.524;9.040;2023-04-28T19:19:06;6.90;;;5.20;;
77864;SDS011;67061;48.524;9.040;2023-04-28T19:21:40;5.93;;;4.22;;
77864;SDS011;67061;48.524;9.040;2023-04-28T19:24:08;20.67;;;15.88;;
77864;SDS011;67061;48.524;9.040;2023-04-28T19:26:36;6.22;;;4.30;;
77864;SDS011;67061;48.524;9.040;2023-04-28T19:29:03;7.68;;;6.47;;
77864;SDS011;67061;48.524;9.040;2023-04-28T19:31:31;6.65;;;4.53;;
77864;SDS011;67061;48.524;9.040;2023-04-28T19:33:59;10.38;;;6.65;;
77864;SDS011;67061;48.524;9.040;2023-04-28T19:36:26;6.13;;;4.03;;
77864;SDS011;67061;48.524;9.040;2023-04-28T19:38:53;9.05;;;6.35;;
77864;SDS011;67061;48.524;9.040;2023-04-28T19:41:20;7.78;;;5.47;;
77864;SDS011;67061;48.524;9.040;2023-04-28T19:43:47;6.88;;;4.90;;
77864;SDS011;67061;48.524;9.040;2023-04-28T19:46:14;6.95;;;5.40;;
77864;SDS011;67061;48.524;9.040;2023-04-28T19:48:42;9.25;;;6.93;;
77864;SDS011;67061;48.524;9.040;2023-04-28T19:51:11;8.27;;;5.35;;
77864;SDS011;67061;48.524;9.040;2023-04-28T19:53:38;8.77;;;5.60;;
77864;SDS011;67061;48.524;9.040;2023-04-28T19:56:05;6.38;;;4.50;;
77864;SDS011;67061;48.524;9.040;2023-04-28T19:58:34;6.80;;;4.93;;
77864;SDS011;67061;48.524;9.040;2023-04-28T20:01:04;7.47;;;5.57;;
77864;SDS011;67061;48.524;9.040;2023-04-28T20:03:31;8.65;;;5.93;;
77864;SDS011;67061;48.524;9.040;2023-04-28T20:05:59;8.15;;;5.80;;
77864;SDS011;67061;48.524;9.040;2023-04-28T20:08:26;8.27;;;6.13;;
77864;SDS011;67061;48.524;9.040;2023-04-28T20:10:53;7.78;;;6.10;;
77864;SDS011;67061;48.524;9.040;2023-04-28T20:13:20;8.15;;;5.38;;
77864;SDS011;67061;48.524;9.040;2023-04-28T20:15:48;7.80;;;6.03;;
77864;SDS011;67061;48.524;9.040;2023-04-28T20:18:15;9.05;;;5.88;;
77864;SDS011;67061;48.524;9.040;2023-04-28T20:20:42;9.93;;;6.20;;